createdAt,value
2022-08-25T00:00:19.568Z,10.27
2022-08-25T00:02:55.233Z,10.20
2022-08-25T00:05:26.319Z,9.90
2022-08-25T00:07:56.140Z,9.53
2022-08-25T00:10:24.819Z,10.10
2022-08-25T00:12:53.700Z,10.90
2022-08-25T00:15:23.907Z,10.07
2022-08-25T00:17:52.773Z,10.53
2022-08-25T00:20:21.752Z,10.10
2022-08-25T00:22:50.285Z,10.50
2022-08-25T00:25:19.382Z,10.63
2022-08-25T00:27:48.663Z,10.47
2022-08-25T00:33:49.529Z,10.20
2022-08-25T00:36:18.837Z,11.27
2022-08-25T00:38:49.772Z,10.33
2022-08-25T00:41:23.612Z,11.20
2022-08-25T00:44:01.812Z,10.70
2022-08-25T00:46:35.947Z,10.73
2022-08-25T00:49:24.856Z,11.10
2022-08-25T00:52:00.325Z,10.87
2022-08-25T00:54:40.918Z,11.03
2022-08-25T00:57:12.949Z,10.63
2022-08-25T00:59:42.971Z,10.87
2022-08-25T01:02:15.403Z,11.57
2022-08-25T01:04:48.621Z,11.53
2022-08-25T01:07:20.910Z,11.27
2022-08-25T01:09:53.370Z,11.30
2022-08-25T01:12:22.794Z,10.77
2022-08-25T01:14:51.618Z,10.80
2022-08-25T01:17:20.782Z,10.27
2022-08-25T01:19:49.609Z,11.97
2022-08-25T01:22:18.689Z,10.33
2022-08-25T01:25:00.009Z,12.67
2022-08-25T01:27:28.483Z,12.00
2022-08-25T01:29:57.986Z,11.70
2022-08-25T01:32:26.553Z,11.90
2022-08-25T01:34:55.093Z,12.30
2022-08-25T01:37:23.496Z,12.13
2022-08-25T01:39:52.092Z,12.20
2022-08-25T01:42:59.623Z,12.20
2022-08-25T01:45:28.901Z,12.03
2022-08-25T01:47:57.488Z,11.80
2022-08-25T01:50:25.929Z,12.53
2022-08-25T01:53:06.340Z,12.07
2022-08-25T01:55:51.685Z,12.27
2022-08-25T01:58:25.791Z,13.57
2022-08-25T02:00:57.621Z,12.70
2022-08-25T02:03:27.103Z,14.23
2022-08-25T02:05:56.344Z,12.60
2022-08-25T02:08:25.771Z,14.10
2022-08-25T02:10:55.669Z,13.07
2022-08-25T02:13:26.990Z,13.10
2022-08-25T02:16:02.314Z,13.43
2022-08-25T02:18:31.416Z,13.17
2022-08-25T02:20:59.864Z,14.23
2022-08-25T02:23:28.466Z,12.80
2022-08-25T02:25:58.069Z,13.77
2022-08-25T02:28:26.812Z,13.63
2022-08-25T02:31:01.659Z,12.77
2022-08-25T02:33:30.407Z,13.80
2022-08-25T02:36:00.886Z,13.47
2022-08-25T02:38:30.669Z,12.80
2022-08-25T02:41:01.166Z,13.27
2022-08-25T02:43:30.157Z,13.93
2022-08-25T02:45:59.370Z,13.87
2022-08-25T02:48:28.589Z,14.20
2022-08-25T02:50:57.026Z,13.00
2022-08-25T02:53:25.434Z,12.23
2022-08-25T02:55:53.825Z,13.83
2022-08-25T02:58:22.546Z,13.70
2022-08-25T03:00:51.370Z,13.07
2022-08-25T03:03:20.780Z,14.23
2022-08-25T03:05:49.572Z,14.10
2022-08-25T03:08:18.034Z,13.57
2022-08-25T03:10:47.400Z,13.80
2022-08-25T03:13:16.864Z,14.57
2022-08-25T03:15:45.901Z,14.70
2022-08-25T03:18:17.263Z,14.23
2022-08-25T03:20:45.832Z,14.27
2022-08-25T03:23:14.337Z,14.37
2022-08-25T03:26:01.189Z,14.73
2022-08-25T03:28:33.050Z,14.57
2022-08-25T03:31:04.304Z,14.57
2022-08-25T03:33:33.262Z,14.73
2022-08-25T03:36:01.796Z,14.87
2022-08-25T03:38:30.306Z,14.80
2022-08-25T03:40:58.822Z,14.77
2022-08-25T03:43:27.363Z,13.30
2022-08-25T03:45:55.986Z,14.13
2022-08-25T03:48:25.113Z,14.70
2022-08-25T03:50:54.838Z,15.57
2022-08-25T03:53:23.159Z,14.87
2022-08-25T03:55:51.674Z,13.63
2022-08-25T03:58:20.127Z,14.60
2022-08-25T04:00:48.617Z,15.57
2022-08-25T04:03:17.102Z,15.00
2022-08-25T04:05:46.061Z,15.37
2022-08-25T04:08:14.845Z,14.90
2022-08-25T04:10:43.430Z,14.37
2022-08-25T04:13:12.296Z,14.67
2022-08-25T04:15:44.687Z,14.97
2022-08-25T04:18:13.406Z,14.93
2022-08-25T04:20:46.939Z,14.23
2022-08-25T04:23:15.479Z,14.00
2022-08-25T04:25:43.928Z,13.80
2022-08-25T04:28:14.706Z,14.87
2022-08-25T04:30:46.410Z,14.97
2022-08-25T04:33:17.592Z,15.33
2022-08-25T04:35:50.670Z,16.57
2022-08-25T04:38:19.147Z,15.30
2022-08-25T04:40:47.560Z,16.10
2022-08-25T04:43:15.946Z,15.70
2022-08-25T04:45:44.514Z,16.13
2022-08-25T04:48:12.963Z,15.37
2022-08-25T04:50:41.579Z,16.10
2022-08-25T04:53:10.138Z,15.77
2022-08-25T04:55:49.619Z,15.80
2022-08-25T04:58:18.447Z,17.00
2022-08-25T05:00:47.995Z,15.03
2022-08-25T05:03:17.429Z,16.03
2022-08-25T05:05:45.876Z,14.93
2022-08-25T05:08:14.282Z,17.00
2022-08-25T05:10:43.180Z,17.23
2022-08-25T05:13:12.311Z,16.90
2022-08-25T05:15:53.269Z,16.33
2022-08-25T05:18:23.885Z,15.50
2022-08-25T05:20:54.359Z,16.63
2022-08-25T05:23:25.219Z,16.03
2022-08-25T05:25:54.315Z,17.10
2022-08-25T05:28:23.239Z,15.93
2022-08-25T05:30:51.630Z,16.57
2022-08-25T05:33:20.316Z,18.07
2022-08-25T05:35:48.760Z,16.30
2022-08-25T05:38:20.123Z,15.77
2022-08-25T05:40:48.532Z,16.67
2022-08-25T05:43:17.108Z,17.33
2022-08-25T05:45:46.648Z,16.90
2022-08-25T05:48:15.611Z,16.37
2022-08-25T05:50:44.117Z,15.70
2022-08-25T05:53:12.468Z,15.00
2022-08-25T05:55:44.947Z,15.37
2022-08-25T05:58:13.917Z,13.40
2022-08-25T06:00:43.130Z,16.27
2022-08-25T06:03:10.826Z,16.10
2022-08-25T06:05:39.639Z,15.40
2022-08-25T06:08:08.062Z,14.97
2022-08-25T06:10:36.840Z,15.00
2022-08-25T06:13:06.526Z,14.33
2022-08-25T06:15:35.065Z,14.03
2022-08-25T06:18:03.710Z,14.47
2022-08-25T06:20:33.072Z,15.07
2022-08-25T06:23:01.591Z,12.70
2022-08-25T06:25:32.740Z,15.10
2022-08-25T06:28:01.155Z,12.17
2022-08-25T06:30:29.700Z,14.03
2022-08-25T06:32:58.258Z,13.27
2022-08-25T06:35:27.807Z,12.70
2022-08-25T06:37:56.276Z,14.20
2022-08-25T06:40:25.963Z,15.33
2022-08-25T06:42:54.486Z,12.03
2022-08-25T06:45:23.186Z,13.00
2022-08-25T06:47:52.830Z,15.73
2022-08-25T06:50:21.647Z,14.20
2022-08-25T06:52:50.054Z,15.73
2022-08-25T06:55:18.692Z,15.00
2022-08-25T06:57:47.091Z,15.00
2022-08-25T07:00:17.462Z,14.13
2022-08-25T07:02:47.175Z,14.30
2022-08-25T07:05:26.885Z,15.23
2022-08-25T07:08:02.285Z,14.77
2022-08-25T07:10:30.715Z,14.77
2022-08-25T07:13:00.167Z,13.67
2022-08-25T07:15:28.595Z,13.37
2022-08-25T07:17:59.020Z,14.63
2022-08-25T07:20:27.546Z,13.50
2022-08-25T07:22:57.036Z,13.77
2022-08-25T07:25:25.913Z,14.70
2022-08-25T07:27:58.591Z,14.37
2022-08-25T07:30:27.587Z,13.13
2022-08-25T07:32:55.956Z,14.30
2022-08-25T07:35:26.265Z,13.83
2022-08-25T07:37:58.130Z,14.43
2022-08-25T07:40:33.000Z,14.03
2022-08-25T07:43:06.257Z,11.90
2022-08-25T07:45:42.101Z,13.67
2022-08-25T07:48:19.765Z,12.03
2022-08-25T07:50:49.910Z,12.40
2022-08-25T07:53:19.054Z,11.90
2022-08-25T07:55:47.429Z,12.23
2022-08-25T07:58:16.577Z,12.47
2022-08-25T08:00:48.540Z,10.90
2022-08-25T08:03:35.483Z,10.27
2022-08-25T08:06:13.343Z,10.83
2022-08-25T08:08:45.396Z,10.60
2022-08-25T08:11:23.942Z,9.57
2022-08-25T08:13:52.552Z,9.63
2022-08-25T08:16:23.619Z,9.63
2022-08-25T08:18:52.454Z,9.60
2022-08-25T08:21:28.912Z,9.90
2022-08-25T08:23:59.299Z,9.97
2022-08-25T08:26:48.155Z,10.43
2022-08-25T08:29:20.103Z,9.70
2022-08-25T08:31:50.903Z,9.87
2022-08-25T08:34:19.378Z,10.20
2022-08-25T08:36:47.811Z,9.50
2022-08-25T08:39:16.190Z,9.77
2022-08-25T08:42:22.394Z,10.20
2022-08-25T08:45:31.172Z,10.50
2022-08-25T08:48:32.376Z,10.23
2022-08-25T08:51:13.480Z,9.30
2022-08-25T08:53:45.472Z,12.03
2022-08-25T08:56:30.697Z,10.50
2022-08-25T08:59:30.277Z,10.10
2022-08-25T09:02:04.186Z,10.97
2022-08-25T09:05:00.241Z,10.80
2022-08-25T09:07:38.156Z,10.50
2022-08-25T09:10:11.718Z,10.00
2022-08-25T09:13:11.245Z,10.53
2022-08-25T09:16:01.270Z,10.33
2022-08-25T09:18:50.932Z,10.57
2022-08-25T09:22:33.462Z,9.90
2022-08-25T09:24:54.254Z,10.47
2022-08-25T09:27:41.358Z,10.93
2022-08-25T09:30:17.196Z,9.87
2022-08-25T09:32:53.681Z,9.90
2022-08-25T09:35:23.326Z,10.60
2022-08-25T09:38:01.590Z,9.67
2022-08-25T09:40:33.850Z,11.17
2022-08-25T09:43:06.093Z,10.60
2022-08-25T09:45:48.852Z,10.30
2022-08-25T09:48:44.401Z,10.87
2022-08-25T09:51:42.142Z,10.10
2022-08-25T09:54:14.360Z,10.27
2022-08-25T09:56:57.700Z,10.43
2022-08-25T09:59:35.123Z,10.30
2022-08-25T10:02:28.873Z,9.77
2022-08-25T10:04:57.728Z,9.90
2022-08-25T10:07:56.551Z,10.10
2022-08-25T10:10:33.236Z,9.93
2022-08-25T10:13:06.167Z,9.77
2022-08-25T10:15:38.821Z,10.70
2022-08-25T10:18:30.536Z,10.83
2022-08-25T10:21:17.541Z,10.87
2022-08-25T10:23:55.930Z,11.33
2022-08-25T10:27:11.599Z,10.40
2022-08-25T10:30:06.350Z,9.90
2022-08-25T10:33:19.247Z,10.77
2022-08-25T10:36:20.591Z,10.50
2022-08-25T10:38:58.462Z,11.07
2022-08-25T10:42:19.193Z,11.17
2022-08-25T10:45:34.751Z,9.77
2022-08-25T10:48:30.372Z,9.70
2022-08-25T10:51:25.419Z,10.00
2022-08-25T10:54:29.414Z,9.97
2022-08-25T10:57:37.500Z,10.57
2022-08-25T11:00:14.513Z,10.43
2022-08-25T11:02:44.985Z,9.70
2022-08-25T11:05:42.109Z,9.57
2022-08-25T11:08:39.211Z,10.20
2022-08-25T11:11:21.877Z,9.17
2022-08-25T11:14:09.262Z,8.03
2022-08-25T11:17:21.207Z,10.17
2022-08-25T11:19:53.437Z,9.50
2022-08-25T11:22:39.749Z,10.37
2022-08-25T11:25:34.475Z,9.97
2022-08-25T11:28:28.345Z,9.10
2022-08-25T11:31:00.333Z,8.57
2022-08-25T11:33:31.172Z,9.27
2022-08-25T11:36:13.720Z,10.03
2022-08-25T11:39:06.829Z,9.27
2022-08-25T11:41:43.397Z,8.67
2022-08-25T11:44:57.927Z,9.10
2022-08-25T11:47:36.114Z,9.00
2022-08-25T11:50:29.842Z,8.70
2022-08-25T11:53:23.706Z,8.23
2022-08-25T11:56:02.408Z,8.50
2022-08-25T11:58:45.403Z,8.53
2022-08-25T12:01:33.660Z,7.67
2022-08-25T12:04:16.111Z,8.47
2022-08-25T12:07:10.957Z,9.10
2022-08-25T12:10:07.964Z,7.68
2022-08-25T12:12:57.279Z,8.43
2022-08-25T12:15:32.831Z,8.07
2022-08-25T12:18:22.938Z,8.90
2022-08-25T12:20:56.758Z,7.77
2022-08-25T12:23:45.071Z,8.43
2022-08-25T12:26:47.367Z,8.43
2022-08-25T12:29:25.445Z,8.20
2022-08-25T12:32:15.935Z,7.82
2022-08-25T12:34:46.863Z,7.80
2022-08-25T12:37:24.641Z,7.67
2022-08-25T12:39:58.678Z,7.77
2022-08-25T12:42:33.413Z,7.80
2022-08-25T12:45:23.893Z,8.13
2022-08-25T12:47:57.641Z,7.57
2022-08-25T12:50:41.696Z,8.43
2022-08-25T12:53:40.586Z,8.83
2022-08-25T12:56:37.539Z,7.95
2022-08-25T12:59:22.942Z,8.13
2022-08-25T13:02:30.551Z,8.13
2022-08-25T13:05:07.368Z,6.90
2022-08-25T13:08:19.385Z,7.87
2022-08-25T13:10:57.758Z,7.57
2022-08-25T13:13:47.402Z,7.63
2022-08-25T13:16:27.064Z,7.20
2022-08-25T13:19:01.569Z,7.87
2022-08-25T13:21:39.437Z,7.97
2022-08-25T13:24:18.532Z,7.53
2022-08-25T13:26:48.003Z,7.43
2022-08-25T13:29:25.618Z,7.87
2022-08-25T13:32:09.678Z,7.10
2022-08-25T13:34:42.796Z,7.28
2022-08-25T13:37:29.773Z,6.57
2022-08-25T13:40:29.511Z,7.57
2022-08-25T13:43:06.643Z,7.65
2022-08-25T13:45:42.534Z,7.65
2022-08-25T13:48:23.105Z,7.18
2022-08-25T13:50:53.123Z,7.47
2022-08-25T13:53:30.492Z,7.50
2022-08-25T13:56:02.982Z,7.65
2022-08-25T13:58:44.860Z,6.95
2022-08-25T14:01:45.125Z,8.13
2022-08-25T14:04:51.104Z,7.75
2022-08-25T14:07:22.824Z,7.75
2022-08-25T14:10:00.151Z,6.75
2022-08-25T14:12:45.458Z,7.05
2022-08-25T14:15:33.387Z,7.15
2022-08-25T14:18:32.449Z,8.07
2022-08-25T14:21:10.786Z,7.32
2022-08-25T14:23:40.613Z,7.50
2022-08-25T14:26:08.703Z,6.93
2022-08-25T14:28:38.374Z,7.28
2022-08-25T14:31:16.569Z,7.78
2022-08-25T14:33:59.528Z,7.90
2022-08-25T14:36:30.412Z,7.57
2022-08-25T14:38:59.466Z,7.72
2022-08-25T14:41:29.598Z,7.00
2022-08-25T14:43:57.691Z,6.97
2022-08-25T14:46:32.100Z,8.38
2022-08-25T14:49:05.056Z,7.47
2022-08-25T14:51:36.216Z,7.28
2022-08-25T14:54:08.102Z,6.50
2022-08-25T14:56:37.679Z,7.57
2022-08-25T14:59:07.588Z,7.10
2022-08-25T15:01:36.467Z,7.90
2022-08-25T15:04:06.835Z,7.45
2022-08-25T15:06:37.365Z,7.57
2022-08-25T15:09:11.247Z,6.78
2022-08-25T15:11:46.316Z,7.35
2022-08-25T15:14:17.375Z,6.80
2022-08-25T15:16:53.662Z,7.85
2022-08-25T15:19:25.329Z,7.55
2022-08-25T15:21:53.918Z,6.95
2022-08-25T15:24:26.770Z,7.55
2022-08-25T15:27:01.922Z,6.93
2022-08-25T15:29:32.034Z,6.97
2022-08-25T15:32:01.181Z,7.18
2022-08-25T15:34:31.260Z,7.40
2022-08-25T15:37:01.163Z,8.00
2022-08-25T15:39:30.902Z,6.80
2022-08-25T15:41:59.305Z,8.32
2022-08-25T15:44:29.775Z,7.88
2022-08-25T15:46:59.493Z,7.22
2022-08-25T15:49:31.373Z,7.82
2022-08-25T15:52:00.335Z,7.82
2022-08-25T15:54:30.456Z,7.35
2022-08-25T15:56:59.800Z,7.95
2022-08-25T15:59:29.342Z,7.57
2022-08-25T16:01:58.089Z,7.90
2022-08-25T16:04:28.618Z,7.43
2022-08-25T16:06:57.241Z,7.82
2022-08-25T16:09:27.180Z,7.28
2022-08-25T16:11:56.636Z,8.13
2022-08-25T16:14:28.001Z,7.43
2022-08-25T16:16:58.327Z,7.72
2022-08-25T16:19:28.552Z,7.95
2022-08-25T16:21:57.250Z,7.80
2022-08-25T16:24:26.298Z,7.85
2022-08-25T16:27:00.269Z,9.02
2022-08-25T16:29:41.934Z,7.35
2022-08-25T16:32:11.209Z,7.93
2022-08-25T16:34:41.987Z,8.38
2022-08-25T16:37:10.814Z,8.05
2022-08-25T16:39:44.085Z,8.85
2022-08-25T16:42:13.151Z,8.23
2022-08-25T16:44:41.601Z,8.60
2022-08-25T16:47:09.974Z,7.97
2022-08-25T16:49:43.353Z,7.82
2022-08-25T16:52:28.565Z,8.15
2022-08-25T16:55:15.924Z,8.30
2022-08-25T16:57:53.802Z,8.45
2022-08-25T17:00:28.281Z,7.60
2022-08-25T17:03:04.810Z,8.55
2022-08-25T17:05:37.014Z,8.40
2022-08-25T17:08:22.765Z,8.23
2022-08-25T17:10:51.160Z,8.37
2022-08-25T17:13:19.196Z,8.63
2022-08-25T17:15:52.500Z,8.40
2022-08-25T17:18:21.287Z,8.00
2022-08-25T17:20:50.449Z,7.97
2022-08-25T17:23:21.062Z,8.57
2022-08-25T17:25:52.026Z,7.23
2022-08-25T17:28:20.256Z,8.13
2022-08-25T17:30:49.671Z,7.73
2022-08-25T17:33:18.191Z,8.70
2022-08-25T17:35:55.101Z,8.47
2022-08-25T17:38:26.732Z,8.60
2022-08-25T17:41:00.244Z,7.80
2022-08-25T17:43:29.900Z,7.87
2022-08-25T17:45:59.049Z,8.20
2022-08-25T17:48:28.905Z,8.17
2022-08-25T17:51:02.032Z,8.07
2022-08-25T17:53:30.915Z,8.47
2022-08-25T17:56:01.969Z,7.80
2022-08-25T17:58:32.016Z,8.70
2022-08-25T18:01:01.100Z,9.07
2022-08-25T18:03:29.976Z,8.30
2022-08-25T18:05:58.601Z,7.83
2022-08-25T18:08:31.978Z,8.77
2022-08-25T18:11:04.686Z,8.57
2022-08-25T18:13:33.131Z,8.10
2022-08-25T18:16:01.531Z,9.50
2022-08-25T18:18:31.599Z,8.73
2022-08-25T18:21:00.033Z,8.07
2022-08-25T18:23:29.166Z,8.43
2022-08-25T18:26:01.002Z,9.10
2022-08-25T18:28:30.244Z,8.87
2022-08-25T18:30:58.901Z,8.30
2022-08-25T18:33:29.943Z,9.53
2022-08-25T18:35:58.972Z,8.63
2022-08-25T18:38:45.439Z,8.97
2022-08-25T18:41:14.570Z,8.30
2022-08-25T18:43:43.011Z,8.53
2022-08-25T18:46:11.755Z,9.13
2022-08-25T18:48:40.191Z,8.60
2022-08-25T18:51:10.560Z,8.87
2022-08-25T18:53:50.341Z,8.50
2022-08-25T18:56:19.969Z,9.13
2022-08-25T18:58:49.144Z,8.70
2022-08-25T19:01:19.111Z,8.90
2022-08-25T19:03:47.990Z,8.27
2022-08-25T19:06:16.774Z,9.20
2022-08-25T19:08:45.208Z,9.47
2022-08-25T19:11:13.794Z,8.40
2022-08-25T19:13:42.571Z,9.20
2022-08-25T19:16:11.893Z,8.83
2022-08-25T19:18:42.777Z,8.87
2022-08-25T19:21:11.736Z,8.83
2022-08-25T19:23:40.178Z,9.60
2022-08-25T19:26:17.026Z,8.90
2022-08-25T19:28:48.847Z,9.07
2022-08-25T19:31:19.725Z,9.17
2022-08-25T19:33:53.792Z,7.93
2022-08-25T19:36:28.889Z,8.17
2022-08-25T19:39:00.204Z,8.30
2022-08-25T19:41:31.292Z,8.30
2022-08-25T19:43:59.847Z,7.50
2022-08-25T19:46:36.101Z,8.30
2022-08-25T19:49:28.377Z,9.70
2022-08-25T19:52:05.520Z,8.03
2022-08-25T19:54:46.131Z,8.73
2022-08-25T19:57:27.881Z,7.73
2022-08-25T20:00:08.342Z,7.90
2022-08-25T20:02:36.902Z,7.77
2022-08-25T20:05:06.230Z,8.37
2022-08-25T20:07:35.561Z,8.77
2022-08-25T20:10:05.283Z,7.77
2022-08-25T20:12:35.518Z,8.63
2022-08-25T20:15:04.413Z,7.70
2022-08-25T20:17:33.545Z,7.97
2022-08-25T20:20:07.130Z,8.53
2022-08-25T20:22:36.794Z,7.27
2022-08-25T20:25:15.282Z,7.33
2022-08-25T20:27:50.740Z,8.43
2022-08-25T20:30:26.137Z,8.37
2022-08-25T20:32:56.561Z,8.57
2022-08-25T20:35:27.415Z,8.47
2022-08-25T20:38:00.348Z,8.47
2022-08-25T20:40:31.165Z,8.30
2022-08-25T20:43:03.298Z,9.03
2022-08-25T20:45:31.781Z,9.10
2022-08-25T20:48:00.357Z,8.87
2022-08-25T20:50:29.469Z,8.80
2022-08-25T20:52:58.834Z,9.23
2022-08-25T20:55:29.359Z,8.87
2022-08-25T20:57:57.817Z,9.33
2022-08-25T21:00:26.445Z,8.63
2022-08-25T21:02:55.008Z,9.77
2022-08-25T21:05:23.584Z,9.07
2022-08-25T21:07:52.107Z,9.50
2022-08-25T21:10:20.609Z,9.50
2022-08-25T21:12:53.317Z,9.10
2022-08-25T21:15:30.107Z,9.80
2022-08-25T21:17:58.744Z,10.27
2022-08-25T21:20:28.293Z,11.47
2022-08-25T21:22:56.805Z,9.63
2022-08-25T21:25:25.320Z,10.10
2022-08-25T21:27:53.729Z,10.93
2022-08-25T21:30:22.366Z,9.83
2022-08-25T21:33:03.563Z,9.60
2022-08-25T21:35:32.055Z,9.87
2022-08-25T21:38:00.532Z,9.73
2022-08-25T21:40:31.397Z,9.10
2022-08-25T21:42:59.820Z,8.60
2022-08-25T21:45:28.233Z,9.20
2022-08-25T21:48:04.589Z,9.03
2022-08-25T21:50:34.254Z,9.03
2022-08-25T21:53:02.687Z,9.23
2022-08-25T21:55:31.543Z,9.13
2022-08-25T21:58:03.431Z,9.23
2022-08-25T22:00:32.547Z,9.33
2022-08-25T22:03:01.308Z,8.90
2022-08-25T22:05:29.932Z,9.33
2022-08-25T22:07:58.351Z,9.37
2022-08-25T22:10:27.572Z,9.27
2022-08-25T22:12:56.106Z,9.27
2022-08-25T22:15:25.167Z,8.50
2022-08-25T22:17:53.572Z,9.40
2022-08-25T22:20:22.034Z,8.87
2022-08-25T22:22:50.399Z,10.30
2022-08-25T22:25:18.912Z,9.50
2022-08-25T22:27:47.975Z,9.23
2022-08-25T22:30:29.540Z,9.30
2022-08-25T22:32:59.489Z,9.07
2022-08-25T22:35:28.696Z,10.43
2022-08-25T22:37:57.136Z,9.83
2022-08-25T22:40:27.733Z,8.93
2022-08-25T22:42:57.537Z,9.30
2022-08-25T22:45:27.593Z,9.13
2022-08-25T22:47:56.397Z,8.93
2022-08-25T22:50:24.802Z,9.67
2022-08-25T22:52:54.398Z,10.20
2022-08-25T22:55:22.947Z,9.07
2022-08-25T22:57:54.812Z,9.63
2022-08-25T23:00:23.550Z,9.03
2022-08-25T23:02:53.675Z,9.07
2022-08-25T23:05:22.236Z,8.97
2022-08-25T23:07:51.108Z,9.40
2022-08-25T23:10:20.788Z,9.73
2022-08-25T23:12:49.189Z,9.83
2022-08-25T23:15:17.616Z,10.37
2022-08-25T23:17:46.072Z,10.40
2022-08-25T23:20:31.803Z,9.73
2022-08-25T23:23:01.650Z,10.40
2022-08-25T23:25:30.256Z,9.77
2022-08-25T23:27:58.800Z,10.17
2022-08-25T23:30:27.828Z,10.37
2022-08-25T23:32:58.916Z,10.30
2022-08-25T23:35:27.354Z,10.10
2022-08-25T23:37:58.016Z,10.20
2022-08-25T23:40:27.754Z,9.53
2022-08-25T23:42:56.167Z,10.53
2022-08-25T23:45:24.601Z,10.13
2022-08-25T23:47:54.361Z,11.17
2022-08-25T23:50:22.963Z,10.57
2022-08-25T23:52:53.376Z,11.10
2022-08-25T23:55:21.934Z,9.87
2022-08-25T23:57:51.504Z,10.67
